Aérodrome :
LOGIN :

S'inscrire | Disclaimer

   EN    FR    IT 

 










Légende :    VFR   VFR Marginal   IFR   IFR Intensif   IFR Très Intensif
Visi : 
Plafond : 
>= 8 km
>= 3000ft
5 à 8 km
1000 à 3000 ft
1500m à 5 km
500 à 1000 ft
800 à 1500m
200 à 500 ft
< 800m
< 200 ft
Symboles :   Orages  Brouillard  Fortes neiges  Fortes précipitations  Vent > 20 kt
SIGMETs :   Divers  Orages  Givrage  Turbulence  Onde Orograph.  Cendres Volcan.






- Altitude de l'aérodrome : 68 ft
- Code IATA : AGH


ESTA - Ängelholm-Helsingborg

DERNIER METAR :
  • 142320Z AUTO 15005KT 5000 FEW012/// 01/01 Q1016

METARs EXPIRÉS :
  • 142250Z AUTO 13004KT 0700 R14/P1500N R32/P1500N NCD 02/01 Q1016
  • 142220Z AUTO 09005KT 0250 R14/0700N R32/P1500N NCD 01/01 Q1015
  • 142150Z AUTO VRB02KT 0600 R14/P1500N R32/P1500N BCFG SCT039/// 02/01 Q1016
  • 142120Z 09004KT 7000 BR NSC M00/M00 Q1016
  • 142050Z 09004KT 4200 BR SCT004 01/01 Q1016

Prévision TAF périmée.



MET'MAP, la Météo Aéronautique d'un coup d'oeil ! - Copyright ORBIFLY Décembre 2007 - Disclaimer

ORBIFLY MET'MAP TEAM :

Programmation & Développement : Alexandra Zaïnal
Conception & Développement : Baudouin d'Aumeries
Co-Programmation & Développement : Marc-Olivier Méhu
Soutien technique & logistique : Manuel Goepfert

Contact : metmap@orbifly.com




SOURCES & CREDITS :

   NOAA